createdAt,value
2023-04-05T00:02:44.299Z,101478.81
2023-04-05T00:05:50.322Z,101479.81
2023-04-05T00:08:57.614Z,101478.25
2023-04-05T00:12:03.247Z,101485.31
2023-04-05T00:15:09.325Z,101485.19
2023-04-05T00:18:21.917Z,101485.19
2023-04-05T00:21:27.436Z,101482.28
2023-04-05T00:24:34.251Z,101478.34
2023-04-05T00:27:43.436Z,101479.38
2023-04-05T00:30:49.033Z,101476.09
2023-04-05T00:33:54.688Z,101483.75
2023-04-05T00:37:00.645Z,101483.38
2023-04-05T00:40:07.460Z,101484.25
2023-04-05T00:43:13.237Z,101480.44
2023-04-05T00:46:18.511Z,101482.94
2023-04-05T00:49:23.620Z,101477.03
2023-04-05T00:52:30.731Z,101478.72
2023-04-05T00:55:36.738Z,101480.16
2023-04-05T00:58:42.913Z,101476.25
2023-04-05T01:01:56.498Z,101477.97
2023-04-05T01:05:33.760Z,101475.81
2023-04-05T01:08:44.902Z,101478.16
2023-04-05T01:11:56.555Z,101477.78
2023-04-05T01:15:02.098Z,101477.69
2023-04-05T01:18:11.051Z,101476.66
2023-04-05T01:21:34.954Z,101477.63
2023-04-05T01:25:06.975Z,101480.44
2023-04-05T01:28:30.653Z,101477.00
2023-04-05T01:31:50.961Z,101476.91
2023-04-05T01:35:35.304Z,101477.94
2023-04-05T01:38:42.843Z,101471.97
2023-04-05T01:41:51.228Z,101467.25
2023-04-05T01:44:57.751Z,101472.63
2023-04-05T01:48:03.763Z,101472.47
2023-04-05T01:51:09.342Z,101471.25
2023-04-05T01:54:14.738Z,101471.25
2023-04-05T01:57:22.142Z,101475.84
2023-04-05T02:00:28.167Z,101481.78
2023-04-05T02:03:33.805Z,101477.03
2023-04-05T02:06:40.407Z,101472.91
2023-04-05T02:09:46.288Z,101472.09
2023-04-05T02:12:51.884Z,101463.19
2023-04-05T02:15:57.917Z,101465.69
2023-04-05T02:19:03.359Z,101474.31
2023-04-05T02:22:09.256Z,101467.72
2023-04-05T02:25:15.350Z,101463.25
2023-04-05T02:28:20.909Z,101470.28
2023-04-05T02:31:27.308Z,101468.63
2023-04-05T02:34:34.027Z,101465.50
2023-04-05T02:37:39.810Z,101458.59
2023-04-05T02:40:49.047Z,101465.13
2023-04-05T02:43:54.402Z,101459.75
2023-04-05T02:46:59.515Z,101465.16
2023-04-05T02:50:09.311Z,101465.84
2023-04-05T02:53:20.537Z,101462.56
2023-04-05T02:56:34.355Z,101461.97
2023-04-05T02:59:42.985Z,101461.69
2023-04-05T03:02:49.385Z,101461.44
2023-04-05T03:06:01.968Z,101468.78
2023-04-05T03:09:14.900Z,101465.50
2023-04-05T03:12:20.279Z,101465.38
2023-04-05T03:15:25.930Z,101462.41
2023-04-05T03:18:31.146Z,101464.63
2023-04-05T03:21:43.527Z,101463.25
2023-04-05T03:25:01.283Z,101464.81
2023-04-05T03:28:09.200Z,101466.97
2023-04-05T03:31:19.535Z,101461.22
2023-04-05T03:34:30.246Z,101462.66
2023-04-05T03:37:41.715Z,101458.81
2023-04-05T03:40:48.937Z,101463.28
2023-04-05T03:43:54.683Z,101456.94
2023-04-05T03:47:02.049Z,101461.09
2023-04-05T03:50:09.519Z,101454.38
2023-04-05T03:53:17.827Z,101460.94
2023-04-05T03:56:27.545Z,101461.91
2023-04-05T03:59:33.135Z,101465.75
2023-04-05T04:02:45.676Z,101458.53
2023-04-05T04:05:54.128Z,101465.72
2023-04-05T04:08:59.851Z,101457.00
2023-04-05T04:12:07.711Z,101464.84
2023-04-05T04:15:17.557Z,101459.69
2023-04-05T04:18:38.985Z,101458.81
2023-04-05T04:22:10.871Z,101454.66
2023-04-05T04:25:46.573Z,101461.97
2023-04-05T04:29:13.052Z,101463.38
2023-04-05T04:32:52.139Z,101463.97
2023-04-05T04:36:14.040Z,101460.72
2023-04-05T04:39:45.082Z,101460.56
2023-04-05T04:43:19.148Z,101462.22
2023-04-05T04:46:47.527Z,101465.34
2023-04-05T04:50:20.518Z,101467.00
2023-04-05T04:53:25.783Z,101470.97
2023-04-05T04:56:31.355Z,101466.25
2023-04-05T04:59:38.240Z,101470.75
2023-04-05T05:02:45.838Z,101473.88
2023-04-05T05:05:55.020Z,101478.56
2023-04-05T05:09:07.904Z,101479.47
2023-04-05T05:12:22.487Z,101476.66
2023-04-05T05:15:27.918Z,101475.19
2023-04-05T05:18:33.236Z,101480.19
2023-04-05T05:21:39.310Z,101482.59
2023-04-05T05:24:45.538Z,101484.72
2023-04-05T05:27:51.592Z,101486.84
2023-04-05T05:30:57.136Z,101488.84
2023-04-05T05:34:02.780Z,101487.75
2023-04-05T05:37:09.693Z,101486.84
2023-04-05T05:40:16.740Z,101495.94
2023-04-05T05:43:21.988Z,101494.94
2023-04-05T05:46:27.474Z,101496.88
2023-04-05T05:49:33.056Z,101493.97
2023-04-05T05:52:38.512Z,101503.91
2023-04-05T05:55:43.766Z,101494.63
2023-04-05T05:58:49.625Z,101504.00
2023-04-05T06:01:55.837Z,101502.91
2023-04-05T06:05:02.445Z,101509.84
2023-04-05T06:08:08.481Z,101509.19
2023-04-05T06:11:18.848Z,101513.38
2023-04-05T06:14:25.381Z,101509.03
2023-04-05T06:17:30.958Z,101505.03
2023-04-05T06:20:41.062Z,101509.66
2023-04-05T06:23:47.640Z,101502.72
2023-04-05T06:26:52.940Z,101510.63
2023-04-05T06:30:00.585Z,101506.44
2023-04-05T06:33:05.654Z,101504.00
2023-04-05T06:36:11.379Z,101503.25
2023-04-05T06:39:16.596Z,101504.59
2023-04-05T06:42:22.213Z,101506.53
2023-04-05T06:45:33.941Z,101512.72
2023-04-05T06:48:40.070Z,101514.94
2023-04-05T06:51:45.492Z,101507.88
2023-04-05T06:54:50.889Z,101513.84
2023-04-05T06:57:56.896Z,101504.31
2023-04-05T07:01:02.845Z,101509.88
2023-04-05T07:04:08.160Z,101509.06
2023-04-05T07:07:13.849Z,101508.56
2023-04-05T07:10:19.571Z,101512.44
2023-04-05T07:13:25.898Z,101513.25
2023-04-05T07:16:31.860Z,101516.31
2023-04-05T07:19:37.672Z,101518.03
2023-04-05T07:22:42.823Z,101514.75
2023-04-05T07:25:48.431Z,101521.75
2023-04-05T07:28:53.850Z,101523.69
2023-04-05T07:31:59.201Z,101521.00
2023-04-05T07:35:04.686Z,101529.13
2023-04-05T07:38:11.702Z,101520.25
2023-04-05T07:41:19.055Z,101529.66
2023-04-05T07:44:24.457Z,101534.38
2023-04-05T07:47:29.931Z,101527.56
2023-04-05T07:50:36.849Z,101538.88
2023-04-05T07:53:43.175Z,101543.63
2023-04-05T07:56:52.449Z,101545.69
2023-04-05T07:59:57.808Z,101546.75
2023-04-05T08:03:04.884Z,101545.59
2023-04-05T08:06:15.051Z,101548.47
2023-04-05T08:09:20.902Z,101553.16
2023-04-05T08:12:27.154Z,101549.81
2023-04-05T08:15:36.521Z,101559.84
2023-04-05T08:18:42.017Z,101548.59
2023-04-05T08:21:47.144Z,101560.94
2023-04-05T08:24:52.500Z,101548.16
2023-04-05T08:27:57.495Z,101556.66
2023-04-05T08:31:02.584Z,101551.31
2023-04-05T08:34:08.730Z,101555.63
2023-04-05T08:37:14.381Z,101558.50
2023-04-05T08:40:20.462Z,101559.75
2023-04-05T08:43:45.676Z,101555.44
2023-04-05T08:46:52.016Z,101553.78
2023-04-05T08:49:57.795Z,101558.50
2023-04-05T08:53:03.375Z,101546.59
2023-04-05T08:56:10.924Z,101555.63
2023-04-05T08:59:17.835Z,101553.97
2023-04-05T09:02:25.197Z,101555.19
2023-04-05T09:05:31.982Z,101559.72
2023-04-05T09:08:39.167Z,101555.00
2023-04-05T09:11:44.991Z,101550.06
2023-04-05T09:14:51.301Z,101552.66
2023-04-05T09:17:57.375Z,101547.38
2023-04-05T09:21:06.501Z,101548.25
2023-04-05T09:24:12.335Z,101544.09
2023-04-05T09:27:19.899Z,101544.66
2023-04-05T09:30:38.094Z,101547.91
2023-04-05T09:33:46.816Z,101548.56
2023-04-05T09:36:53.150Z,101547.28
2023-04-05T09:40:07.220Z,101541.22
2023-04-05T09:43:13.865Z,101538.88
2023-04-05T09:46:38.588Z,101538.00
2023-04-05T09:49:45.136Z,101536.06
2023-04-05T09:52:51.824Z,101543.56
2023-04-05T09:56:15.374Z,101534.06
2023-04-05T09:59:22.271Z,101534.94
2023-04-05T10:02:38.227Z,101536.47
2023-04-05T10:05:45.065Z,101541.06
2023-04-05T10:08:52.644Z,101533.31
2023-04-05T10:11:58.747Z,101528.50
2023-04-05T10:15:05.570Z,101528.84
2023-04-05T10:18:21.748Z,101523.56
2023-04-05T10:21:36.192Z,101535.78
2023-04-05T10:25:09.592Z,101515.97
2023-04-05T10:28:35.199Z,101519.75
2023-04-05T10:31:51.797Z,101521.75
2023-04-05T10:35:25.022Z,101524.28
2023-04-05T10:38:33.370Z,101516.16
2023-04-05T10:42:07.976Z,101516.00
2023-04-05T10:45:19.939Z,101521.38
2023-04-05T10:48:35.446Z,101511.13
2023-04-05T10:51:44.241Z,101512.53
2023-04-05T10:54:50.116Z,101495.25
2023-04-05T10:57:56.071Z,101497.50
2023-04-05T11:01:04.728Z,101496.56
2023-04-05T11:04:15.526Z,101498.31
2023-04-05T11:07:21.592Z,101487.19
2023-04-05T11:10:28.607Z,101489.66
2023-04-05T11:13:56.657Z,101493.16
2023-04-05T11:17:04.225Z,101486.38
2023-04-05T11:20:12.262Z,101488.78
2023-04-05T11:23:22.955Z,101474.53
2023-04-05T11:26:41.249Z,101475.66
2023-04-05T11:29:50.930Z,101468.22
2023-04-05T11:32:56.663Z,101468.94
2023-04-05T11:36:05.533Z,101471.19
2023-04-05T11:39:22.964Z,101471.69
2023-04-05T11:42:28.404Z,101458.06
2023-04-05T11:45:35.826Z,101451.03
2023-04-05T11:48:42.457Z,101442.91
2023-04-05T11:51:50.947Z,101451.69
2023-04-05T11:54:56.342Z,101448.81
2023-04-05T11:58:02.436Z,101437.88
2023-04-05T12:01:09.602Z,101443.50
2023-04-05T12:04:15.044Z,101438.31
2023-04-05T12:07:20.975Z,101435.72
2023-04-05T12:10:26.703Z,101441.94
2023-04-05T12:13:35.860Z,101435.63
2023-04-05T12:16:50.957Z,101430.97
2023-04-05T12:19:56.995Z,101432.13
2023-04-05T12:23:04.210Z,101431.31
2023-04-05T12:26:09.907Z,101433.47
2023-04-05T12:29:15.368Z,101423.88
2023-04-05T12:32:22.804Z,101428.31
2023-04-05T12:35:34.941Z,101428.06
2023-04-05T12:38:40.803Z,101420.50
2023-04-05T12:41:57.334Z,101407.25
2023-04-05T12:45:12.900Z,101404.09
2023-04-05T12:48:25.884Z,101402.97
2023-04-05T12:51:32.865Z,101403.16
2023-04-05T12:54:39.207Z,101405.13
2023-04-05T12:57:44.836Z,101408.06
2023-04-05T13:00:50.319Z,101398.03
2023-04-05T13:04:04.910Z,101401.06
2023-04-05T13:07:18.658Z,101387.31
2023-04-05T13:10:25.870Z,101389.81
2023-04-05T13:13:31.973Z,101390.94
2023-04-05T13:16:37.372Z,101381.19
2023-04-05T13:19:43.323Z,101378.63
2023-04-05T13:22:49.043Z,101372.13
2023-04-05T13:25:54.669Z,101374.59
2023-04-05T13:29:00.465Z,101362.34
2023-04-05T13:32:06.361Z,101376.28
2023-04-05T13:35:12.088Z,101358.41
2023-04-05T13:38:17.671Z,101361.66
2023-04-05T13:41:23.120Z,101356.75
2023-04-05T13:44:28.521Z,101356.72
2023-04-05T13:47:34.623Z,101357.19
2023-04-05T13:50:40.323Z,101350.28
2023-04-05T13:53:46.386Z,101349.84
2023-04-05T13:56:52.169Z,101347.31
2023-04-05T13:59:57.752Z,101350.53
2023-04-05T14:03:03.401Z,101346.38
2023-04-05T14:06:08.613Z,101340.69
2023-04-05T14:09:14.215Z,101337.63
2023-04-05T14:12:19.868Z,101330.56
2023-04-05T14:15:26.080Z,101339.06
2023-04-05T14:18:31.715Z,101332.50
2023-04-05T14:21:37.509Z,101323.91
2023-04-05T14:24:42.996Z,101322.06
2023-04-05T14:27:48.701Z,101324.00
2023-04-05T14:30:54.301Z,101323.34
2023-04-05T14:34:00.318Z,101319.25
2023-04-05T14:37:06.844Z,101331.81
2023-04-05T14:40:12.666Z,101331.91
2023-04-05T14:43:18.686Z,101328.97
2023-04-05T14:46:24.465Z,101326.69
2023-04-05T14:49:30.526Z,101317.91
2023-04-05T14:52:36.148Z,101314.50
2023-04-05T14:55:41.784Z,101320.66
2023-04-05T14:58:47.392Z,101315.97
2023-04-05T15:01:53.564Z,101309.81
2023-04-05T15:05:02.232Z,101314.97
2023-04-05T15:08:07.874Z,101302.53
2023-04-05T15:11:13.706Z,101307.25
2023-04-05T15:14:29.023Z,101300.75
2023-04-05T15:17:37.286Z,101298.78
2023-04-05T15:20:42.793Z,101312.72
2023-04-05T15:23:48.325Z,101307.91
2023-04-05T15:26:59.033Z,101300.19
2023-04-05T15:30:04.814Z,101298.88
2023-04-05T15:33:10.485Z,101307.97
2023-04-05T15:36:16.000Z,101306.00
2023-04-05T15:39:21.935Z,101302.28
2023-04-05T15:42:27.517Z,101300.84
2023-04-05T15:45:33.029Z,101301.47
2023-04-05T15:48:38.503Z,101303.47
2023-04-05T15:51:44.054Z,101310.88
2023-04-05T15:54:49.710Z,101305.75
2023-04-05T15:57:55.331Z,101301.47
2023-04-05T16:01:00.998Z,101299.13
2023-04-05T16:04:06.493Z,101298.00
2023-04-05T16:07:12.379Z,101299.59
2023-04-05T16:10:18.297Z,101297.94
2023-04-05T16:13:24.000Z,101303.75
2023-04-05T16:16:38.620Z,101298.56
2023-04-05T16:19:57.056Z,101293.59
2023-04-05T16:23:03.720Z,101300.28
2023-04-05T16:26:09.500Z,101306.38
2023-04-05T16:29:15.316Z,101297.88
2023-04-05T16:32:21.050Z,101296.97
2023-04-05T16:35:26.486Z,101301.03
2023-04-05T16:38:31.910Z,101301.28
2023-04-05T16:41:37.259Z,101307.97
2023-04-05T16:44:42.967Z,101304.34
2023-04-05T16:47:48.742Z,101306.22
2023-04-05T16:50:54.241Z,101310.16
2023-04-05T16:54:00.101Z,101312.84
2023-04-05T16:57:05.672Z,101317.72
2023-04-05T17:00:11.330Z,101316.44
2023-04-05T17:03:16.876Z,101314.72
2023-04-05T17:06:22.159Z,101328.94
2023-04-05T17:09:29.432Z,101328.94
2023-04-05T17:12:35.753Z,101325.94
2023-04-05T17:15:41.163Z,101328.41
2023-04-05T17:18:46.884Z,101332.13
2023-04-05T17:21:52.621Z,101335.59
2023-04-05T17:24:58.524Z,101332.28
2023-04-05T17:28:04.531Z,101342.94
2023-04-05T17:31:11.237Z,101340.31
2023-04-05T17:34:16.944Z,101342.09
2023-04-05T17:37:22.371Z,101340.38
2023-04-05T17:40:27.839Z,101345.56
2023-04-05T17:43:33.336Z,101346.19
2023-04-05T17:46:43.128Z,101343.75
2023-04-05T17:49:51.916Z,101345.00
2023-04-05T17:52:57.390Z,101355.75
2023-04-05T17:56:03.440Z,101345.72
2023-04-05T17:59:09.454Z,101349.06
2023-04-05T18:02:15.008Z,101359.91
2023-04-05T18:05:21.044Z,101365.41
2023-04-05T18:08:26.806Z,101369.16
2023-04-05T18:11:32.090Z,101375.47
2023-04-05T18:14:37.441Z,101377.94
2023-04-05T18:17:45.457Z,101380.84
2023-04-05T18:20:51.802Z,101379.78
2023-04-05T18:23:58.253Z,101390.22
2023-04-05T18:27:03.526Z,101388.97
2023-04-05T18:30:10.990Z,101393.06
2023-04-05T18:33:17.818Z,101399.03
2023-04-05T18:36:26.898Z,101402.88
2023-04-05T18:39:32.102Z,101404.13
2023-04-05T18:42:37.637Z,101404.53
2023-04-05T18:45:43.413Z,101410.25
2023-04-05T18:48:54.740Z,101416.72
2023-04-05T18:52:00.813Z,101423.91
2023-04-05T18:55:06.811Z,101424.34
2023-04-05T18:58:11.918Z,101430.03
2023-04-05T19:01:19.070Z,101435.13
2023-04-05T19:04:24.399Z,101444.34
2023-04-05T19:07:29.499Z,101452.44
2023-04-05T19:10:34.667Z,101454.28
2023-04-05T19:13:39.752Z,101442.03
2023-04-05T19:16:45.099Z,101454.25
2023-04-05T19:19:50.269Z,101454.69
2023-04-05T19:22:55.907Z,101458.75
2023-04-05T19:26:01.547Z,101465.28
2023-04-05T19:29:06.987Z,101458.72
2023-04-05T19:32:15.792Z,101466.28
2023-04-05T19:35:21.199Z,101471.03
2023-04-05T19:38:26.614Z,101476.34
2023-04-05T19:41:33.410Z,101474.63
2023-04-05T19:45:00.207Z,101480.72
2023-04-05T19:48:36.176Z,101481.53
2023-04-05T19:51:42.688Z,101478.56
2023-04-05T19:54:48.347Z,101479.34
2023-04-05T19:57:54.356Z,101486.13
2023-04-05T20:00:59.896Z,101485.06
2023-04-05T20:04:13.639Z,101484.66
2023-04-05T20:07:18.902Z,101480.31
2023-04-05T20:10:41.762Z,101485.84
2023-04-05T20:13:49.912Z,101490.50
2023-04-05T20:16:56.846Z,101487.06
2023-04-05T20:20:02.382Z,101500.09
2023-04-05T20:23:07.976Z,101503.19
2023-04-05T20:26:16.098Z,101508.66
2023-04-05T20:29:27.844Z,101504.78
2023-04-05T20:32:33.680Z,101510.75
2023-04-05T20:35:39.351Z,101516.16
2023-04-05T20:38:46.505Z,101520.41
2023-04-05T20:41:56.101Z,101527.63
2023-04-05T20:45:01.704Z,101532.16
2023-04-05T20:48:07.130Z,101533.81
2023-04-05T20:51:13.812Z,101534.66
2023-04-05T20:54:20.454Z,101530.56
2023-04-05T20:57:26.476Z,101541.41
2023-04-05T21:00:31.849Z,101540.75
2023-04-05T21:03:42.056Z,101545.06
2023-04-05T21:06:47.886Z,101541.88
2023-04-05T21:09:53.385Z,101550.91
2023-04-05T21:12:58.967Z,101557.22
2023-04-05T21:16:04.689Z,101559.94
2023-04-05T21:19:10.179Z,101559.78
2023-04-05T21:22:16.025Z,101560.53
2023-04-05T21:25:21.897Z,101565.09
2023-04-05T21:28:27.413Z,101559.59
2023-04-05T21:31:33.104Z,101556.78
2023-04-05T21:34:38.522Z,101562.78
2023-04-05T21:37:43.491Z,101566.84
2023-04-05T21:40:50.926Z,101561.16
2023-04-05T21:43:57.680Z,101570.13
2023-04-05T21:47:03.824Z,101575.41
2023-04-05T21:50:09.702Z,101571.84
2023-04-05T21:53:15.665Z,101572.56
2023-04-05T21:56:21.258Z,101571.75
2023-04-05T21:59:26.814Z,101569.56
2023-04-05T22:02:32.748Z,101576.69
2023-04-05T22:05:39.182Z,101572.56
2023-04-05T22:08:44.638Z,101575.66
2023-04-05T22:11:51.706Z,101572.84
2023-04-05T22:14:57.220Z,101576.81
2023-04-05T22:18:02.757Z,101582.94
2023-04-05T22:21:08.565Z,101584.75
2023-04-05T22:24:14.996Z,101576.81
2023-04-05T22:27:20.616Z,101581.09
2023-04-05T22:30:28.263Z,101583.97
2023-04-05T22:33:34.085Z,101584.06
2023-04-05T22:36:39.973Z,101586.88
2023-04-05T22:39:46.102Z,101584.97
2023-04-05T22:42:51.433Z,101584.22
2023-04-05T22:45:56.944Z,101598.72
2023-04-05T22:49:02.130Z,101592.97
2023-04-05T22:52:07.197Z,101586.34
2023-04-05T22:55:13.334Z,101591.78
2023-04-05T22:58:19.832Z,101589.75
2023-04-05T23:01:25.450Z,101588.53
2023-04-05T23:04:31.138Z,101596.03
2023-04-05T23:07:37.149Z,101594.50
2023-04-05T23:10:42.995Z,101597.47
2023-04-05T23:13:48.119Z,101600.88
2023-04-05T23:16:53.128Z,101597.50
2023-04-05T23:19:58.439Z,101594.97
2023-04-05T23:23:03.869Z,101599.38
2023-04-05T23:26:09.687Z,101602.50
2023-04-05T23:29:15.517Z,101608.69
2023-04-05T23:32:21.076Z,101604.88
2023-04-05T23:35:27.303Z,101600.91
2023-04-05T23:38:32.855Z,101607.50
2023-04-05T23:41:38.348Z,101612.03
2023-04-05T23:44:43.956Z,101613.31
2023-04-05T23:47:49.442Z,101612.72
2023-04-05T23:50:55.048Z,101606.91
2023-04-05T23:54:00.590Z,101610.53
2023-04-05T23:57:05.949Z,101605.78
